This is the latest recevied weather packets stored in our database for station/object XE2KK-10. If no packets are shown the sender has not sent any weather packets the latest 10 day(s).
| Time | Temp. | Humidity | Pressure | Rain* | Wind** | Luminosity | Snow |
|---|---|---|---|---|---|---|---|
| 1778107453 | 37.22° C | 23% | 1006.2 hPa | 0 mm | - | 95 W/m² | - |
| 1778107153 | 37.22° C | 22% | 1006.4 hPa | 0 mm | - | 179 W/m² | - |
| 1778106852 | 37.22° C | 21% | 1006 hPa | 0 mm | - | 148 W/m² | - |
| 1778106552 | 37.22° C | 22% | 1006.1 hPa | 0 mm | - | 169 W/m² | - |
| 1778106253 | 37.22° C | 22% | 1006 hPa | 0 mm | - | 104 W/m² | - |
| 1778105953 | 37.22° C | 22% | 1006.1 hPa | 0 mm | - | 124 W/m² | - |
| 1778105653 | 37.22° C | 22% | 1006.1 hPa | 0 mm | - | 166 W/m² | - |
| 1778105353 | 37.22° C | 22% | 1006.1 hPa | 0 mm | - | 127 W/m² | - |
| 1778105052 | 37.22° C | 22% | 1006.2 hPa | 0 mm | - | 138 W/m² | - |
| 1778104752 | 37.22° C | 22% | 1006.1 hPa | 0 mm | - | 133 W/m² | - |
| 1778104453 | 37.78° C | 22% | 1006.3 hPa | 0 mm | - | 163 W/m² | - |
| 1778104153 | 37.78° C | 21% | 1006.3 hPa | 0 mm | - | 180 W/m² | - |
| 1778103852 | 37.78° C | 21% | 1006.3 hPa | 0 mm | - | 181 W/m² | - |
| 1778103552 | 37.78° C | 21% | 1006.2 hPa | 0 mm | - | 221 W/m² | - |
| 1778103253 | 37.78° C | 20% | 1005.9 hPa | 0 mm | - | 175 W/m² | - |
| 1778102953 | 38.89° C | 20% | 1006.3 hPa | 0 mm | - | 163 W/m² | - |
| 1778102653 | 40° C | 19% | 1006.3 hPa | 0 mm | - | 257 W/m² | - |
| 1778102352 | 40° C | 13% | 1006.8 hPa | 0 mm | - | 340 W/m² | - |
| 1778102052 | 39.44° C | 17% | 1006.3 hPa | 0 mm | - | 594 W/m² | - |
| 1778101753 | 40° C | 12% | 1006.6 hPa | 0 mm | - | 587 W/m² | - |
| 1778101453 | 40° C | 11% | 1006.7 hPa | 0 mm | - | 585 W/m² | - |
| 1778101153 | 40.56° C | 11% | 1006.6 hPa | 0 mm | - | 675 W/m² | - |
| 1778100853 | 40° C | 11% | 1006.9 hPa | 0 mm | - | 686 W/m² | - |
| 1778100552 | 40° C | 11% | 1007 hPa | 0 mm | - | 653 W/m² | - |
| 1778100253 | 40° C | 11% | 1007 hPa | 0 mm | - | 714 W/m² | - |
* Rain latest hour (hover to see other rain measurements)
** Current wind speed in m/s (hover to see current wind gust speed)